Terminal Aerodrome Forecast
Issued by NWS

Home | Current Version | Previous Version | Text Only | Print | Product List | Glossary On
Versions: 1 2 3 4 5 6 7 8 9 10 11 12 13 14 15 16
781
FTUS45 KRIW 260537
TAFCPR
TAF
KCPR 260537Z 2606/2706 22013G19KT P6SM FEW200 WS008/25030KT
     FM261700 24024G32KT P6SM SCT200
     FM270100 22017G25KT P6SM BKN150=

USA.gov is the U.S. government's official web portal to all federal, state and local government web resources and services.